Time;durP1;ratioP1;P1;durP2;ratioP2;P2;SDS_P1;SDS_P2;PMS_P1;PMS_P2;Temp;Humidity;BMP_temperature;BMP_pressure;BME280_temperature;BME280_humidity;BME280_pressure;Samples;Min_cycle;Max_cycle;Signal;HPM_P1;HPM_P2
2021/12/08 00:01:10;;;;;;;18.50;12.50;;;;;;;;;;5055283;28;20434;-54
2021/12/08 00:03:38;;;;;;;22.80;12.20;;;;;;;;;;5055098;28;20416;-55
2021/12/08 00:06:04;;;;;;;17.80;11.80;;;;;;;;;;5055328;28;20415;-53
2021/12/08 00:08:33;;;;;;;18.50;12.80;;;;;;;;;;5053861;28;20475;-55
2021/12/08 00:13:27;;;;;;;17.87;12.27;;;;;;;;;;5055223;28;20477;-54
2021/12/08 00:15:53;;;;;;;16.50;11.70;;;;;;;;;;5054932;28;20475;-54
2021/12/08 00:18:25;;;;;;;16.40;11.30;;;;;;;;;;5054975;28;20403;-55
2021/12/08 00:20:53;;;;;;;16.70;12.03;;;;;;;;;;5054739;28;20459;-53
2021/12/08 00:23:19;;;;;;;18.03;12.17;;;;;;;;;;5054932;28;20461;-53
2021/12/08 00:25:45;;;;;;;17.50;12.63;;;;;;;;;;5054666;28;20412;-60
2021/12/08 00:28:12;;;;;;;17.10;11.60;;;;;;;;;;5054734;28;20400;-55
2021/12/08 00:30:39;;;;;;;19.20;12.30;;;;;;;;;;5054638;28;20499;-53
2021/12/08 00:33:06;;;;;;;17.30;12.23;;;;;;;;;;5054611;28;20740;-54
2021/12/08 00:35:32;;;;;;;19.30;11.87;;;;;;;;;;5054491;28;20510;-54
2021/12/08 00:37:58;;;;;;;19.40;12.00;;;;;;;;;;5054486;28;20911;-55
2021/12/08 00:40:25;;;;;;;20.57;12.90;;;;;;;;;;5054407;28;20415;-56
2021/12/08 00:42:51;;;;;;;21.23;12.50;;;;;;;;;;5052754;28;20900;-53
2021/12/08 00:45:18;;;;;;;22.80;13.83;;;;;;;;;;5054446;28;20415;-55
2021/12/08 00:47:45;;;;;;;23.13;13.67;;;;;;;;;;5054319;28;20892;-54
2021/12/08 00:50:12;;;;;;;24.67;14.33;;;;;;;;;;5054202;28;20407;-54
2021/12/08 00:52:38;;;;;;;24.87;14.97;;;;;;;;;;5054214;28;20407;-57
2021/12/08 00:55:06;;;;;;;21.73;13.60;;;;;;;;;;5054058;28;20544;-56
2021/12/08 00:57:32;;;;;;;23.67;13.70;;;;;;;;;;5052796;28;20974;-54
2021/12/08 00:59:58;;;;;;;24.80;14.00;;;;;;;;;;5054132;28;20425;-55
2021/12/08 01:02:24;;;;;;;24.20;14.07;;;;;;;;;;5054077;28;20462;-56
2021/12/08 01:04:50;;;;;;;24.27;14.07;;;;;;;;;;5052775;28;20443;-55
2021/12/08 01:07:16;;;;;;;27.00;13.80;;;;;;;;;;5053928;28;20515;-56
2021/12/08 01:09:41;;;;;;;28.30;15.67;;;;;;;;;;5052622;28;20432;-55
2021/12/08 01:12:08;;;;;;;31.70;15.50;;;;;;;;;;5053905;28;20435;-56
2021/12/08 01:14:35;;;;;;;26.00;14.73;;;;;;;;;;5053864;28;20466;-57
2021/12/08 01:17:01;;;;;;;28.43;15.63;;;;;;;;;;5053733;28;20800;-54
2021/12/08 01:19:28;;;;;;;30.00;15.83;;;;;;;;;;5053554;28;21054;-55
2021/12/08 01:21:54;;;;;;;30.23;14.90;;;;;;;;;;5053631;28;20412;-52
2021/12/08 01:24:20;;;;;;;29.07;15.90;;;;;;;;;;5053708;28;20408;-56
2021/12/08 01:26:47;;;;;;;31.37;15.47;;;;;;;;;;5053593;28;20502;-54
2021/12/08 01:29:13;;;;;;;30.50;15.50;;;;;;;;;;5053862;28;20423;-53
2021/12/08 01:31:41;;;;;;;28.20;15.90;;;;;;;;;;5053505;28;20443;-54
2021/12/08 01:34:08;;;;;;;30.33;15.00;;;;;;;;;;5053334;28;20958;-53
2021/12/08 01:36:36;;;;;;;31.43;16.60;;;;;;;;;;5053652;28;20832;-56
2021/12/08 01:39:03;;;;;;;30.80;15.40;;;;;;;;;;5053400;28;20440;-54
2021/12/08 01:41:29;;;;;;;28.07;15.07;;;;;;;;;;5053412;28;20823;-64
2021/12/08 01:46:40;;;;;;;28.27;15.00;;;;;;;;;;5053228;28;20481;-65
2021/12/08 01:49:06;;;;;;;28.57;15.80;;;;;;;;;;5053207;28;20888;-56
2021/12/08 01:51:32;;;;;;;33.57;16.10;;;;;;;;;;5053400;28;20499;-53
2021/12/08 01:54:01;;;;;;;27.03;15.43;;;;;;;;;;5052813;28;20900;-54
2021/12/08 01:56:27;;;;;;;25.10;14.20;;;;;;;;;;5052514;28;20867;-52
2021/12/08 01:58:54;;;;;;;28.00;14.57;;;;;;;;;;5053171;28;20837;-54
2021/12/08 02:01:21;;;;;;;29.70;14.80;;;;;;;;;;5053215;28;20437;-55
2021/12/08 02:03:48;;;;;;;24.77;13.97;;;;;;;;;;5053130;28;20396;-58
2021/12/08 02:06:15;;;;;;;28.17;14.30;;;;;;;;;;5052986;28;20403;-61
2021/12/08 02:08:41;;;;;;;26.13;14.40;;;;;;;;;;5053243;28;20788;-61
2021/12/08 02:11:07;;;;;;;25.40;13.70;;;;;;;;;;5052754;28;20410;-58
2021/12/08 02:13:37;;;;;;;28.93;14.93;;;;;;;;;;5051703;28;20466;-57
2021/12/08 02:16:06;;;;;;;23.37;13.60;;;;;;;;;;5053071;28;20493;-59
2021/12/08 02:18:32;;;;;;;25.70;13.53;;;;;;;;;;5052693;28;20923;-56
2021/12/08 02:20:59;;;;;;;24.60;14.30;;;;;;;;;;5052904;28;20455;-55
2021/12/08 02:23:25;;;;;;;26.40;14.17;;;;;;;;;;5052690;28;20494;-53
2021/12/08 02:25:51;;;;;;;24.37;13.80;;;;;;;;;;5051568;28;20411;-56
2021/12/08 02:28:18;;;;;;;26.70;14.50;;;;;;;;;;5052712;28;20408;-53
2021/12/08 02:30:52;;;;;;;30.03;14.37;;;;;;;;;;5052902;28;20404;-54
2021/12/08 02:47:44;;;;;;;31.20;16.10;;;;;;;;;;5052525;28;20749;-55
2021/12/08 02:49:57;;;;;;;29.90;15.60;;;;;;;;;;5052049;28;20471;-54
2021/12/08 02:52:23;;;;;;;27.90;15.00;;;;;;;;;;5052544;28;20507;-54
2021/12/08 02:54:50;;;;;;;29.77;15.13;;;;;;;;;;5051194;28;20534;-55
2021/12/08 02:57:17;;;;;;;30.50;15.83;;;;;;;;;;5052271;28;20418;-53
2021/12/08 02:59:44;;;;;;;36.10;16.77;;;;;;;;;;5052420;28;20396;-55
2021/12/08 03:02:10;;;;;;;31.40;15.63;;;;;;;;;;5052394;28;20458;-54
2021/12/08 03:04:36;;;;;;;31.87;15.40;;;;;;;;;;5052366;28;20442;-55
2021/12/08 03:07:03;;;;;;;29.23;15.53;;;;;;;;;;5054937;28;20450;-57
2021/12/08 03:09:29;;;;;;;32.40;15.73;;;;;;;;;;5056271;28;20415;-53
2021/12/08 03:11:55;;;;;;;31.03;16.00;;;;;;;;;;5056407;28;20488;-53
2021/12/08 03:14:22;;;;;;;32.73;16.67;;;;;;;;;;5055093;28;20921;-54
2021/12/08 03:16:49;;;;;;;32.67;16.13;;;;;;;;;;5056047;28;20419;-53
2021/12/08 03:19:16;;;;;;;33.57;16.30;;;;;;;;;;5055929;28;20454;-53
2021/12/08 03:21:42;;;;;;;37.13;16.73;;;;;;;;;;5055807;28;20415;-54
2021/12/08 03:24:24;;;;;;;33.17;16.60;;;;;;;;;;5055807;28;20410;-55
2021/12/08 03:26:57;;;;;;;33.20;16.00;;;;;;;;;;5055990;28;20407;-54
2021/12/08 03:29:32;;;;;;;32.60;16.40;;;;;;;;;;5056115;28;20407;-53
2021/12/08 03:32:07;;;;;;;28.37;15.80;;;;;;;;;;5056053;28;20795;-53
2021/12/08 03:34:37;;;;;;;31.00;16.33;;;;;;;;;;5055819;28;20446;-52
2021/12/08 03:37:04;;;;;;;34.47;16.37;;;;;;;;;;5055878;28;20423;-54
2021/12/08 03:39:30;;;;;;;32.00;16.83;;;;;;;;;;5055707;28;20402;-54
2021/12/08 03:41:56;;;;;;;28.20;14.83;;;;;;;;;;5055576;28;20435;-55
2021/12/08 03:44:22;;;;;;;31.43;16.40;;;;;;;;;;5055862;28;20430;-54
2021/12/08 03:46:48;;;;;;;33.53;16.50;;;;;;;;;;5055555;28;20738;-54
2021/12/08 03:49:16;;;;;;;35.23;16.50;;;;;;;;;;5055395;28;20415;-53
2021/12/08 03:51:42;;;;;;;33.57;16.43;;;;;;;;;;5054326;28;20404;-54
2021/12/08 03:54:09;;;;;;;32.40;16.60;;;;;;;;;;5053984;28;20427;-54
2021/12/08 03:56:35;;;;;;;35.77;16.40;;;;;;;;;;5055440;28;20515;-55
2021/12/08 03:59:01;;;;;;;35.47;16.97;;;;;;;;;;5055213;28;20404;-55
2021/12/08 04:01:27;;;;;;;35.13;17.43;;;;;;;;;;5055323;28;20902;-56
2021/12/08 04:03:55;;;;;;;33.03;15.63;;;;;;;;;;5055240;28;20502;-58
2021/12/08 04:06:32;;;;;;;36.13;16.80;;;;;;;;;;5055308;28;20415;-54
2021/12/08 04:08:58;;;;;;;34.20;17.67;;;;;;;;;;5055421;28;20424;-54
2021/12/08 04:11:26;;;;;;;34.03;17.00;;;;;;;;;;5055072;28;20419;-53
2021/12/08 04:13:54;;;;;;;36.33;16.00;;;;;;;;;;5055523;28;20414;-54
2021/12/08 04:16:23;;;;;;;37.30;17.27;;;;;;;;;;5055228;28;20557;-59
2021/12/08 04:18:49;;;;;;;33.33;16.73;;;;;;;;;;5054227;28;20469;-57
2021/12/08 04:21:16;;;;;;;36.67;16.80;;;;;;;;;;5054964;28;20426;-56
2021/12/08 04:23:42;;;;;;;31.60;15.70;;;;;;;;;;5053549;28;20750;-58
2021/12/08 04:26:12;;;;;;;35.73;16.50;;;;;;;;;;5054699;28;20412;-58
2021/12/08 04:28:39;;;;;;;28.40;14.80;;;;;;;;;;5054676;28;20415;-56
2021/12/08 04:31:10;;;;;;;34.03;16.07;;;;;;;;;;5054645;28;20416;-53
2021/12/08 04:33:36;;;;;;;32.53;15.73;;;;;;;;;;5054521;28;20408;-55
2021/12/08 04:36:06;;;;;;;31.93;15.30;;;;;;;;;;5053246;28;20506;-53
2021/12/08 04:38:36;;;;;;;29.63;15.63;;;;;;;;;;5054450;28;20455;-60
2021/12/08 04:41:07;;;;;;;36.70;16.30;;;;;;;;;;5054258;28;20511;-54
2021/12/08 04:43:51;;;;;;;31.77;16.40;;;;;;;;;;5054683;28;20469;-54
2021/12/08 04:46:31;;;;;;;28.10;15.73;;;;;;;;;;5054308;28;20450;-55
2021/12/08 04:51:55;;;;;;;28.63;14.70;;;;;;;;;;5054672;28;20469;-56
2021/12/08 05:01:09;;;;;;;31.37;15.33;;;;;;;;;;5054125;28;20927;-55
2021/12/08 05:04:06;;;;;;;31.83;15.20;;;;;;;;;;5053866;28;20966;-55
2021/12/08 05:09:03;;;;;;;30.17;14.80;;;;;;;;;;5054312;28;20986;-55
2021/12/08 05:11:34;;;;;;;26.17;14.47;;;;;;;;;;5053850;28;20412;-61
2021/12/08 05:14:03;;;;;;;27.50;14.60;;;;;;;;;;5053842;28;20816;-56
2021/12/08 05:16:30;;;;;;;28.10;15.80;;;;;;;;;;5053866;28;20503;-55
2021/12/08 05:18:57;;;;;;;28.60;13.73;;;;;;;;;;5053568;28;20471;-60
2021/12/08 05:21:36;;;;;;;30.00;15.60;;;;;;;;;;5053800;28;20758;-54
2021/12/08 05:24:10;;;;;;;27.77;14.40;;;;;;;;;;5053615;28;20451;-56
2021/12/08 05:26:39;;;;;;;27.47;14.70;;;;;;;;;;5053939;28;20403;-53
2021/12/08 05:29:25;;;;;;;27.07;13.80;;;;;;;;;;5053797;28;20447;-54
2021/12/08 05:31:52;;;;;;;29.93;15.00;;;;;;;;;;5053271;28;20760;-56
2021/12/08 05:34:19;;;;;;;25.97;14.10;;;;;;;;;;5053507;28;20404;-58
2021/12/08 05:36:46;;;;;;;29.40;15.17;;;;;;;;;;5053452;28;20443;-55
2021/12/08 05:39:16;;;;;;;28.17;14.30;;;;;;;;;;5051903;28;20474;-52
2021/12/08 05:41:43;;;;;;;26.17;14.03;;;;;;;;;;5053424;28;20423;-55
2021/12/08 05:44:10;;;;;;;26.07;14.47;;;;;;;;;;5053257;28;20515;-55
2021/12/08 05:46:41;;;;;;;24.90;14.93;;;;;;;;;;5053067;28;20606;-54
2021/12/08 05:49:07;;;;;;;29.67;15.60;;;;;;;;;;5053193;28;20501;-59
2021/12/08 05:51:34;;;;;;;29.80;16.00;;;;;;;;;;5053385;28;20773;-54
2021/12/08 05:54:02;;;;;;;30.53;15.70;;;;;;;;;;5053102;28;20404;-56
2021/12/08 05:56:29;;;;;;;28.30;15.47;;;;;;;;;;5053032;28;20420;-56
2021/12/08 05:58:56;;;;;;;34.27;17.10;;;;;;;;;;5052836;28;20499;-56
2021/12/08 06:01:25;;;;;;;35.07;16.43;;;;;;;;;;5052941;28;20415;-55
2021/12/08 06:03:52;;;;;;;30.17;15.77;;;;;;;;;;5053172;28;20427;-54
2021/12/08 06:06:20;;;;;;;31.33;15.50;;;;;;;;;;5052906;28;20410;-55
2021/12/08 06:08:46;;;;;;;36.40;17.80;;;;;;;;;;5052819;28;20967;-60
2021/12/08 06:11:14;;;;;;;34.50;16.63;;;;;;;;;;5052668;28;20442;-60
2021/12/08 06:13:41;;;;;;;31.23;16.60;;;;;;;;;;5052852;28;20473;-56
2021/12/08 06:16:10;;;;;;;35.00;16.73;;;;;;;;;;5052559;28;20471;-55
2021/12/08 06:18:39;;;;;;;32.80;16.97;;;;;;;;;;5052640;28;20411;-57
2021/12/08 06:21:07;;;;;;;29.17;16.33;;;;;;;;;;5052620;28;20455;-54
2021/12/08 06:23:34;;;;;;;31.37;17.73;;;;;;;;;;5051535;28;20922;-52
2021/12/08 06:26:01;;;;;;;32.23;17.03;;;;;;;;;;5052583;28;20423;-58
2021/12/08 06:28:27;;;;;;;31.17;17.40;;;;;;;;;;5052819;28;20415;-56
2021/12/08 06:30:53;;;;;;;32.93;17.93;;;;;;;;;;5052560;28;20422;-55
2021/12/08 06:33:20;;;;;;;34.47;17.93;;;;;;;;;;5052639;28;20460;-53
2021/12/08 06:35:58;;;;;;;31.77;17.53;;;;;;;;;;5052597;28;20872;-52
2021/12/08 06:38:25;;;;;;;33.57;17.83;;;;;;;;;;5052198;28;20415;-53
2021/12/08 06:40:54;;;;;;;36.33;16.30;;;;;;;;;;5054027;28;20465;-54
2021/12/08 06:43:21;;;;;;;35.83;17.40;;;;;;;;;;5059119;28;20501;-53
2021/12/08 06:45:49;;;;;;;32.17;17.70;;;;;;;;;;5059171;28;20434;-53
2021/12/08 06:48:24;;;;;;;37.87;18.87;;;;;;;;;;5058738;28;20407;-53
2021/12/08 06:50:53;;;;;;;36.30;18.20;;;;;;;;;;5059032;28;20399;-55
2021/12/08 06:53:19;;;;;;;31.10;17.13;;;;;;;;;;5058748;28;20403;-53
2021/12/08 06:55:52;;;;;;;34.87;17.80;;;;;;;;;;5058931;28;20466;-56
2021/12/08 06:58:22;;;;;;;33.33;17.40;;;;;;;;;;5058826;28;20435;-56
2021/12/08 07:01:02;;;;;;;35.70;17.87;;;;;;;;;;5058738;28;20438;-56
2021/12/08 07:03:41;;;;;;;53.20;18.57;;;;;;;;;;5057554;28;20476;-52
2021/12/08 07:06:18;;;;;;;34.70;18.27;;;;;;;;;;5059030;28;20498;-54
2021/12/08 07:08:48;;;;;;;34.63;17.33;;;;;;;;;;5058992;28;20410;-54
2021/12/08 07:11:16;;;;;;;35.83;18.47;;;;;;;;;;5058765;28;20399;-55
2021/12/08 07:13:43;;;;;;;40.20;18.30;;;;;;;;;;5058715;28;20502;-51
2021/12/08 07:16:11;;;;;;;36.87;19.20;;;;;;;;;;5058606;28;20517;-53
2021/12/08 07:18:52;;;;;;;33.67;18.43;;;;;;;;;;5058454;28;20414;-52
2021/12/08 07:21:19;;;;;;;34.30;18.10;;;;;;;;;;5058851;28;20427;-54
2021/12/08 07:23:50;;;;;;;36.17;17.30;;;;;;;;;;5058749;28;20407;-52
2021/12/08 07:26:19;;;;;;;35.00;18.77;;;;;;;;;;5058558;28;20915;-56
2021/12/08 07:28:47;;;;;;;41.87;18.57;;;;;;;;;;5058712;28;20437;-51
2021/12/08 07:31:21;;;;;;;34.60;17.60;;;;;;;;;;5058827;28;20530;-55
2021/12/08 07:33:47;;;;;;;36.93;18.47;;;;;;;;;;5058547;28;20404;-55
2021/12/08 07:36:16;;;;;;;31.27;17.30;;;;;;;;;;5058427;28;20471;-53
2021/12/08 07:38:43;;;;;;;37.53;18.57;;;;;;;;;;5058790;28;20490;-52
2021/12/08 07:41:17;;;;;;;36.80;18.60;;;;;;;;;;5058453;28;20410;-55
2021/12/08 07:43:44;;;;;;;33.27;17.63;;;;;;;;;;5058586;28;20760;-53
2021/12/08 07:46:12;;;;;;;34.70;17.10;;;;;;;;;;5058139;28;20407;-56
2021/12/08 07:48:45;;;;;;;32.23;17.57;;;;;;;;;;5058262;28;20430;-54
2021/12/08 07:51:19;;;;;;;38.53;16.67;;;;;;;;;;5058216;28;20431;-54
2021/12/08 07:53:46;;;;;;;30.60;16.80;;;;;;;;;;5054312;28;20855;-52
2021/12/08 07:56:14;;;;;;;31.30;17.40;;;;;;;;;;5055170;28;20520;-53
2021/12/08 07:58:42;;;;;;;31.77;15.80;;;;;;;;;;5055514;28;20502;-56
2021/12/08 08:01:16;;;;;;;29.27;16.53;;;;;;;;;;5055316;28;20473;-55
2021/12/08 08:03:43;;;;;;;30.53;16.57;;;;;;;;;;5054225;28;20416;-57
2021/12/08 08:06:12;;;;;;;31.87;16.30;;;;;;;;;;5054786;28;20499;-57
2021/12/08 08:08:38;;;;;;;37.30;18.07;;;;;;;;;;5053790;28;20423;-55
2021/12/08 08:11:13;;;;;;;38.53;18.30;;;;;;;;;;5055137;28;20858;-59
2021/12/08 08:13:39;;;;;;;27.43;15.40;;;;;;;;;;5054998;28;20951;-57
2021/12/08 08:16:08;;;;;;;38.70;19.80;;;;;;;;;;5054796;28;20467;-57
2021/12/08 08:18:36;;;;;;;31.07;16.53;;;;;;;;;;5054793;28;20408;-54
2021/12/08 08:21:08;;;;;;;26.83;16.50;;;;;;;;;;5054843;28;20781;-54
2021/12/08 08:23:34;;;;;;;35.63;17.20;;;;;;;;;;5054757;28;20984;-57
2021/12/08 08:26:01;;;;;;;38.63;18.63;;;;;;;;;;5054338;28;20745;-56
2021/12/08 08:28:27;;;;;;;34.97;16.70;;;;;;;;;;5054626;28;20408;-56
2021/12/08 08:31:02;;;;;;;39.10;20.87;;;;;;;;;;5054584;28;20419;-56
2021/12/08 08:33:29;;;;;;;38.83;17.07;;;;;;;;;;5054375;28;20476;-59
2021/12/08 08:35:57;;;;;;;29.07;15.60;;;;;;;;;;5052515;28;20478;-54
2021/12/08 08:38:25;;;;;;;36.53;17.70;;;;;;;;;;5054802;28;20934;-59
2021/12/08 08:40:57;;;;;;;27.50;15.47;;;;;;;;;;5049299;28;20499;-54
2021/12/08 08:43:23;;;;;;;29.87;16.67;;;;;;;;;;5053026;28;20407;-57
2021/12/08 08:45:57;;;;;;;33.23;16.00;;;;;;;;;;5051401;28;20474;-54
2021/12/08 08:48:36;;;;;;;32.00;15.73;;;;;;;;;;5051100;28;20415;-53
2021/12/08 08:51:07;;;;;;;25.23;15.70;;;;;;;;;;5051287;28;20419;-56
2021/12/08 08:53:35;;;;;;;28.20;15.37;;;;;;;;;;5054697;28;20418;-59
2021/12/08 08:56:07;;;;;;;24.90;14.50;;;;;;;;;;5050778;28;20471;-53
2021/12/08 08:58:34;;;;;;;24.03;14.30;;;;;;;;;;5050852;28;20900;-55
2021/12/08 09:01:03;;;;;;;26.90;15.10;;;;;;;;;;5050301;28;20457;-56
2021/12/08 09:03:32;;;;;;;30.10;14.90;;;;;;;;;;5050827;28;20469;-54
2021/12/08 09:06:00;;;;;;;26.73;15.50;;;;;;;;;;5051239;28;20753;-57
2021/12/08 09:08:29;;;;;;;21.60;13.80;;;;;;;;;;5050960;28;20457;-56
2021/12/08 09:11:01;;;;;;;29.63;14.50;;;;;;;;;;5052476;28;20773;-55
2021/12/08 09:13:31;;;;;;;22.43;13.57;;;;;;;;;;5050578;28;20888;-56
2021/12/08 09:15:59;;;;;;;25.03;14.20;;;;;;;;;;5051205;28;20476;-54
2021/12/08 09:18:38;;;;;;;23.63;14.37;;;;;;;;;;5051114;28;20403;-55
2021/12/08 09:21:17;;;;;;;24.57;14.43;;;;;;;;;;5050950;28;20426;-56
2021/12/08 09:23:49;;;;;;;27.33;14.47;;;;;;;;;;5050548;28;20449;-57
2021/12/08 09:26:16;;;;;;;26.93;14.87;;;;;;;;;;5050697;28;20749;-56
2021/12/08 09:29:02;;;;;;;21.47;13.30;;;;;;;;;;5050379;28;20901;-57
2021/12/08 09:31:31;;;;;;;22.70;12.70;;;;;;;;;;5050507;28;20494;-53
2021/12/08 09:34:01;;;;;;;21.03;12.30;;;;;;;;;;5049503;28;20959;-54
2021/12/08 09:36:33;;;;;;;21.60;12.80;;;;;;;;;;5049867;28;20475;-55
2021/12/08 09:39:02;;;;;;;22.93;13.70;;;;;;;;;;5049357;28;20447;-55
2021/12/08 09:41:31;;;;;;;22.20;14.00;;;;;;;;;;5050423;28;20438;-56
2021/12/08 09:44:00;;;;;;;22.20;14.30;;;;;;;;;;5052495;28;20420;-54
2021/12/08 09:46:33;;;;;;;22.93;13.53;;;;;;;;;;5049840;28;20912;-57
2021/12/08 09:48:59;;;;;;;21.87;13.20;;;;;;;;;;5050318;28;20562;-55
2021/12/08 09:51:26;;;;;;;16.93;11.77;;;;;;;;;;5050294;28;20486;-55
2021/12/08 09:53:52;;;;;;;21.67;12.77;;;;;;;;;;5050534;28;20404;-57
2021/12/08 09:56:19;;;;;;;17.53;12.50;;;;;;;;;;5050463;28;20474;-56
2021/12/08 09:58:46;;;;;;;21.00;12.60;;;;;;;;;;5050404;28;20465;-52
2021/12/08 10:01:16;;;;;;;20.00;12.70;;;;;;;;;;5049198;28;21012;-54
2021/12/08 10:03:43;;;;;;;16.47;11.70;;;;;;;;;;5048781;28;20406;-55
2021/12/08 10:06:10;;;;;;;19.20;12.60;;;;;;;;;;5050406;28;20404;-54
2021/12/08 10:08:36;;;;;;;19.87;13.13;;;;;;;;;;5050412;28;20908;-52
2021/12/08 10:11:02;;;;;;;20.13;13.10;;;;;;;;;;5050173;28;20411;-53
2021/12/08 10:13:28;;;;;;;20.93;13.03;;;;;;;;;;5049760;28;20461;-53
2021/12/08 10:15:54;;;;;;;21.57;13.73;;;;;;;;;;5049251;28;21002;-51
2021/12/08 10:18:20;;;;;;;26.13;13.57;;;;;;;;;;5049107;28;20957;-53
2021/12/08 10:20:52;;;;;;;20.27;12.77;;;;;;;;;;5049935;28;20486;-53
2021/12/08 10:23:22;;;;;;;20.33;12.10;;;;;;;;;;5050160;28;20748;-57
2021/12/08 10:25:56;;;;;;;17.67;11.47;;;;;;;;;;5050207;28;20422;-55
2021/12/08 10:28:22;;;;;;;21.43;12.27;;;;;;;;;;5049720;28;20506;-52
2021/12/08 10:30:53;;;;;;;19.60;11.63;;;;;;;;;;5050227;28;20416;-52
2021/12/08 10:39:09;;;;;;;16.60;11.67;;;;;;;;;;5049682;28;20772;-52
2021/12/08 10:41:43;;;;;;;16.33;11.00;;;;;;;;;;5049295;28;20415;-53
2021/12/08 10:44:09;;;;;;;16.80;11.23;;;;;;;;;;5049446;28;20415;-55
2021/12/08 10:46:40;;;;;;;18.87;11.17;;;;;;;;;;5049839;28;20841;-53
2021/12/08 10:49:15;;;;;;;20.03;11.50;;;;;;;;;;5049658;28;20407;-51
2021/12/08 10:54:31;;;;;;;14.80;10.10;;;;;;;;;;5049504;28;20434;-52
2021/12/08 10:56:58;;;;;;;18.73;11.20;;;;;;;;;;5049317;28;20419;-55
2021/12/08 10:59:29;;;;;;;15.23;10.40;;;;;;;;;;5049829;28;20611;-52
2021/12/08 11:01:59;;;;;;;16.77;11.40;;;;;;;;;;5049327;28;20931;-53
2021/12/08 11:04:30;;;;;;;14.70;9.57;;;;;;;;;;5048335;28;20419;-55
2021/12/08 11:07:03;;;;;;;15.80;10.07;;;;;;;;;;5048843;28;20408;-55
2021/12/08 11:09:38;;;;;;;12.73;9.50;;;;;;;;;;5048161;28;20791;-52
2021/12/08 11:12:04;;;;;;;14.93;9.10;;;;;;;;;;5048038;28;20415;-54
2021/12/08 11:14:44;;;;;;;14.37;9.37;;;;;;;;;;5049355;28;20404;-53
2021/12/08 11:17:26;;;;;;;14.40;10.13;;;;;;;;;;5049418;28;20505;-52
2021/12/08 11:20:11;;;;;;;11.47;9.03;;;;;;;;;;5049308;28;21199;-53
2021/12/08 11:22:37;;;;;;;12.73;9.70;;;;;;;;;;5049599;28;20403;-56
2021/12/08 11:25:04;;;;;;;13.97;10.00;;;;;;;;;;5048889;28;20415;-55
2021/12/08 11:27:34;;;;;;;11.97;8.10;;;;;;;;;;5050831;28;20498;-53
2021/12/08 11:30:11;;;;;;;11.90;8.47;;;;;;;;;;5053205;28;20419;-54
2021/12/08 11:32:37;;;;;;;10.57;7.60;;;;;;;;;;5052857;28;20400;-53
2021/12/08 11:35:03;;;;;;;9.00;7.70;;;;;;;;;;5053262;28;20466;-52
2021/12/08 11:37:34;;;;;;;10.67;8.20;;;;;;;;;;5052619;28;20947;-53
2021/12/08 11:40:02;;;;;;;10.00;7.37;;;;;;;;;;5052571;28;20889;-52
2021/12/08 11:42:31;;;;;;;10.83;7.57;;;;;;;;;;5053156;28;20557;-55
2021/12/08 11:44:58;;;;;;;8.40;7.13;;;;;;;;;;5053197;28;20411;-56
2021/12/08 11:47:32;;;;;;;8.03;7.33;;;;;;;;;;5052532;28;20455;-57
2021/12/08 11:50:01;;;;;;;8.37;6.87;;;;;;;;;;5051439;28;20419;-58
2021/12/08 11:52:34;;;;;;;8.07;6.80;;;;;;;;;;5052524;28;20476;-66
2021/12/08 11:55:03;;;;;;;8.77;7.23;;;;;;;;;;5050980;28;21109;-62
2021/12/08 11:57:34;;;;;;;9.57;7.50;;;;;;;;;;5052651;28;20421;-61
2021/12/08 12:00:14;;;;;;;8.33;6.93;;;;;;;;;;5052235;28;20786;-53
2021/12/08 12:02:44;;;;;;;8.53;7.17;;;;;;;;;;5052171;28;20407;-55
2021/12/08 12:05:16;;;;;;;11.27;7.87;;;;;;;;;;5052297;28;20435;-56
2021/12/08 12:07:42;;;;;;;8.00;7.10;;;;;;;;;;5052023;28;20407;-53
2021/12/08 12:10:10;;;;;;;8.87;6.57;;;;;;;;;;5052146;28;20846;-58
2021/12/08 12:12:41;;;;;;;11.13;6.87;;;;;;;;;;5051989;28;20407;-56
2021/12/08 12:15:08;;;;;;;11.43;7.80;;;;;;;;;;5050807;28;20461;-57
2021/12/08 12:17:34;;;;;;;7.93;7.07;;;;;;;;;;5051907;28;20880;-57
2021/12/08 12:20:03;;;;;;;7.43;6.73;;;;;;;;;;5050597;28;20463;-55
2021/12/08 12:22:48;;;;;;;8.60;7.27;;;;;;;;;;5050646;28;20415;-59
2021/12/08 12:25:37;;;;;;;9.30;7.23;;;;;;;;;;5051772;28;20893;-57
2021/12/08 12:28:21;;;;;;;9.63;7.70;;;;;;;;;;5051663;28;20423;-56
2021/12/08 12:30:55;;;;;;;10.40;7.90;;;;;;;;;;5051972;28;20407;-56
2021/12/08 12:33:23;;;;;;;10.80;8.10;;;;;;;;;;5051874;28;20490;-60
2021/12/08 12:35:53;;;;;;;12.60;9.20;;;;;;;;;;5051895;28;21023;-55
2021/12/08 12:38:31;;;;;;;16.83;10.33;;;;;;;;;;5051451;28;20946;-58
2021/12/08 12:40:58;;;;;;;12.50;9.90;;;;;;;;;;5049949;28;20407;-58
2021/12/08 12:43:33;;;;;;;17.80;10.83;;;;;;;;;;5052688;28;20403;-56
2021/12/08 12:46:07;;;;;;;16.53;9.87;;;;;;;;;;5050628;28;20450;-59
2021/12/08 12:48:36;;;;;;;15.10;10.10;;;;;;;;;;5052299;28;20404;-56
2021/12/08 12:51:06;;;;;;;17.07;11.37;;;;;;;;;;5051836;28;20461;-57
2021/12/08 12:53:32;;;;;;;17.80;10.60;;;;;;;;;;5051993;28;20489;-56
2021/12/08 12:55:58;;;;;;;22.80;11.63;;;;;;;;;;5051437;28;20495;-54
2021/12/08 12:58:24;;;;;;;19.53;11.17;;;;;;;;;;5051240;28;20392;-55
2021/12/08 13:00:52;;;;;;;21.77;11.93;;;;;;;;;;5051356;28;20418;-55
2021/12/08 13:03:33;;;;;;;19.97;12.43;;;;;;;;;;5051286;28;20403;-55
2021/12/08 13:05:59;;;;;;;17.70;11.30;;;;;;;;;;5051231;28;20957;-53
2021/12/08 13:08:30;;;;;;;16.73;11.40;;;;;;;;;;5051265;28;20404;-55
2021/12/08 13:10:58;;;;;;;17.80;11.70;;;;;;;;;;5050749;28;20404;-54
2021/12/08 13:13:24;;;;;;;19.80;12.13;;;;;;;;;;5050637;28;20453;-59
2021/12/08 13:15:50;;;;;;;17.30;12.40;;;;;;;;;;5051005;28;20574;-57
2021/12/08 13:18:20;;;;;;;21.67;12.33;;;;;;;;;;5050612;28;20422;-55
2021/12/08 13:20:58;;;;;;;19.07;12.40;;;;;;;;;;5050734;28;20533;-54
2021/12/08 13:23:27;;;;;;;18.57;13.20;;;;;;;;;;5050444;28;20399;-58
2021/12/08 13:28:25;;;;;;;18.73;12.30;;;;;;;;;;5050846;28;20926;-60
2021/12/08 13:30:51;;;;;;;17.67;12.67;;;;;;;;;;5051098;28;20400;-55
2021/12/08 13:33:25;;;;;;;20.97;13.87;;;;;;;;;;5050331;28;20403;-58
2021/12/08 13:35:53;;;;;;;24.00;14.10;;;;;;;;;;5050814;28;20490;-56
2021/12/08 13:38:19;;;;;;;19.67;13.00;;;;;;;;;;5050693;28;20400;-57
2021/12/08 13:40:58;;;;;;;19.60;13.07;;;;;;;;;;5050498;28;20400;-57
2021/12/08 13:43:40;;;;;;;22.43;13.13;;;;;;;;;;5053768;28;20406;-57
2021/12/08 13:46:08;;;;;;;21.73;13.20;;;;;;;;;;5050456;28;20406;-57
2021/12/08 13:48:34;;;;;;;17.30;12.37;;;;;;;;;;5049942;28;20412;-57
2021/12/08 13:51:20;;;;;;;19.00;12.70;;;;;;;;;;5049154;28;20437;-58
2021/12/08 13:54:07;;;;;;;27.93;13.17;;;;;;;;;;5050610;28;20407;-57
2021/12/08 13:56:40;;;;;;;22.33;13.20;;;;;;;;;;5050050;28;20990;-57
2021/12/08 13:59:06;;;;;;;21.30;14.13;;;;;;;;;;5049817;28;20445;-60
2021/12/08 14:01:37;;;;;;;23.07;14.10;;;;;;;;;;5050099;28;20850;-59
2021/12/08 14:04:15;;;;;;;24.90;14.00;;;;;;;;;;5048731;28;20430;-53
2021/12/08 14:06:41;;;;;;;19.90;13.10;;;;;;;;;;5050043;28;20911;-58
2021/12/08 14:09:15;;;;;;;23.70;14.67;;;;;;;;;;5050020;28;20927;-56
2021/12/08 14:11:41;;;;;;;21.97;14.30;;;;;;;;;;5050008;28;20407;-59
2021/12/08 14:14:08;;;;;;;22.33;14.73;;;;;;;;;;5049665;28;20434;-56
2021/12/08 14:16:34;;;;;;;26.40;15.43;;;;;;;;;;5049205;28;20475;-59
2021/12/08 14:19:01;;;;;;;24.00;15.40;;;;;;;;;;5049607;28;20447;-56
2021/12/08 14:21:34;;;;;;;24.67;15.47;;;;;;;;;;5049761;28;20932;-59
2021/12/08 14:24:04;;;;;;;27.20;15.10;;;;;;;;;;5049281;28;20465;-57
2021/12/08 14:26:31;;;;;;;24.40;15.17;;;;;;;;;;5049766;28;20411;-62
2021/12/08 14:29:01;;;;;;;23.03;14.40;;;;;;;;;;5050177;28;20455;-63
2021/12/08 14:31:30;;;;;;;25.37;15.60;;;;;;;;;;5050035;28;20411;-56
2021/12/08 14:33:58;;;;;;;25.80;15.70;;;;;;;;;;5049949;28;20408;-56
2021/12/08 14:36:44;;;;;;;25.80;15.70;;;;;;;;;;5049465;28;20471;-57
2021/12/08 14:39:22;;;;;;;29.30;16.90;;;;;;;;;;5048649;28;20411;-58
2021/12/08 14:41:51;;;;;;;34.50;17.17;;;;;;;;;;5048951;28;20427;-62
2021/12/08 14:44:20;;;;;;;26.37;15.77;;;;;;;;;;5049503;28;20458;-62
2021/12/08 14:46:47;;;;;;;27.73;16.07;;;;;;;;;;5048655;28;20412;-57
2021/12/08 14:49:17;;;;;;;28.23;16.27;;;;;;;;;;5049487;28;20419;-59
2021/12/08 14:51:43;;;;;;;27.60;16.10;;;;;;;;;;5048782;28;20811;-64
2021/12/08 14:54:21;;;;;;;28.20;16.40;;;;;;;;;;5049005;28;20426;-61
2021/12/08 14:57:05;;;;;;;26.33;16.20;;;;;;;;;;5049516;28;20489;-61
2021/12/08 14:59:32;;;;;;;24.70;15.33;;;;;;;;;;5049635;28;20431;-55
2021/12/08 15:01:59;;;;;;;27.00;16.67;;;;;;;;;;5050439;28;20423;-55
2021/12/08 15:04:25;;;;;;;29.27;16.80;;;;;;;;;;5053407;28;20453;-57
2021/12/08 15:06:52;;;;;;;26.80;16.87;;;;;;;;;;5053250;28;20757;-63
2021/12/08 15:09:18;;;;;;;30.20;16.70;;;;;;;;;;5053813;28;20406;-60
2021/12/08 15:11:44;;;;;;;28.20;16.80;;;;;;;;;;5052988;28;20419;-59
2021/12/08 15:14:14;;;;;;;25.63;15.60;;;;;;;;;;5054747;28;20411;-58